createdAt,value
2022-11-14T16:09:02.276Z,10.88
2022-11-14T16:10:03.265Z,10.43
2022-11-14T16:11:03.262Z,10.13
2022-11-14T16:12:03.902Z,9.95
2022-11-14T16:13:03.238Z,9.84
2022-11-14T16:14:03.191Z,9.77
2022-11-14T16:15:03.191Z,9.72
2022-11-14T16:16:03.184Z,9.68
2022-11-14T16:17:03.179Z,9.65
2022-11-14T16:18:03.153Z,9.62
2022-11-14T16:19:03.139Z,9.60
2022-11-14T16:20:03.111Z,9.58
2022-11-14T16:21:03.099Z,9.56
2022-11-14T16:22:03.279Z,9.55
2022-11-14T16:23:03.083Z,9.54
2022-11-14T16:24:03.092Z,9.53
2022-11-14T16:25:03.065Z,9.52
2022-11-14T16:26:03.053Z,9.51
2022-11-14T16:27:03.032Z,9.49
2022-11-14T16:28:03.021Z,9.48
2022-11-14T16:29:03.031Z,9.46
2022-11-14T16:30:03.012Z,9.44
2022-11-14T16:31:02.996Z,9.42
2022-11-14T16:32:02.973Z,9.41
2022-11-14T16:33:02.966Z,9.39
2022-11-14T16:34:02.961Z,9.37
2022-11-14T16:35:02.963Z,9.36
2022-11-14T16:36:03.000Z,9.34
2022-11-14T16:37:02.934Z,9.32
2022-11-14T16:38:02.929Z,9.31
2022-11-14T16:39:02.931Z,9.29
2022-11-14T16:40:02.971Z,9.28
2022-11-14T16:41:02.895Z,9.27
2022-11-14T16:42:02.994Z,9.26
2022-11-14T16:43:02.840Z,9.25
2022-11-14T16:44:03.051Z,9.24
2022-11-14T16:45:02.849Z,9.23
2022-11-14T16:46:02.809Z,9.22
2022-11-14T16:47:02.800Z,9.22
2022-11-14T16:48:02.773Z,9.21
2022-11-14T16:49:02.787Z,9.20
2022-11-14T16:50:02.777Z,9.19
2022-11-14T16:51:14.993Z,9.19
2022-11-14T16:52:03.804Z,9.18
2022-11-14T16:59:51.206Z,10.18
2022-11-14T17:03:01.449Z,10.10
2022-11-14T17:17:28.465Z,9.98
2022-11-14T17:29:48.481Z,9.86
2022-11-14T17:34:21.462Z,9.81
2022-11-14T18:11:33.582Z,9.66
2022-11-14T19:04:59.142Z,9.29
2022-11-14T19:07:20.395Z,9.30
2022-11-14T19:14:31.533Z,9.28
2022-11-14T20:10:17.014Z,8.65
2022-11-14T20:11:17.971Z,8.20
2022-11-14T20:12:18.009Z,7.90
2022-11-14T20:13:17.872Z,7.72
2022-11-14T20:14:17.916Z,7.63
2022-11-14T20:15:17.844Z,7.57
2022-11-14T20:16:17.859Z,7.54
2022-11-14T20:17:18.278Z,7.52
2022-11-14T20:18:18.126Z,7.51
2022-11-14T20:19:18.036Z,7.50
2022-11-14T20:20:17.790Z,7.50
2022-11-14T20:21:17.777Z,7.49
2022-11-14T20:22:17.819Z,7.49
2022-11-14T20:23:17.773Z,7.49
2022-11-14T20:24:17.767Z,7.48
2022-11-14T20:25:17.748Z,7.48
2022-11-14T20:26:17.791Z,7.47
2022-11-14T20:27:17.723Z,7.47
2022-11-14T20:28:17.688Z,7.47
2022-11-14T20:29:17.684Z,7.46
2022-11-14T20:30:17.679Z,7.46
2022-11-14T20:31:17.686Z,7.45
2022-11-14T20:32:17.649Z,7.45
2022-11-14T20:33:17.651Z,7.44
2022-11-14T20:34:17.612Z,7.44
2022-11-14T20:35:17.616Z,7.43
2022-11-14T20:36:17.609Z,7.43
2022-11-14T20:37:17.770Z,7.43
2022-11-14T20:38:17.571Z,7.42
2022-11-14T20:39:17.603Z,7.41
2022-11-14T20:40:17.551Z,7.40
2022-11-14T20:41:17.550Z,7.38
2022-11-14T20:42:17.755Z,7.37
2022-11-14T20:43:17.573Z,7.36
2022-11-14T20:44:17.488Z,7.35
2022-11-14T20:45:17.488Z,7.34
2022-11-14T20:46:17.561Z,7.34
2022-11-14T20:47:17.477Z,7.33
2022-11-14T20:48:17.434Z,7.33
2022-11-14T20:49:17.414Z,7.32
2022-11-14T20:50:17.409Z,7.32
2022-11-14T20:51:17.429Z,7.31
2022-11-14T20:52:17.389Z,7.30
2022-11-14T20:53:17.372Z,7.29
2022-11-14T20:54:17.361Z,7.28
2022-11-14T20:55:17.439Z,7.26
2022-11-14T20:56:17.348Z,7.24
2022-11-14T20:57:17.334Z,7.23
2022-11-14T20:58:17.305Z,7.22
2022-11-14T20:59:17.309Z,7.21
2022-11-14T21:00:17.276Z,7.20
2022-11-14T21:01:17.325Z,7.20
2022-11-14T21:02:17.291Z,7.20
2022-11-14T21:03:17.240Z,7.20
2022-11-14T21:04:17.246Z,7.20
2022-11-14T21:05:17.235Z,7.20
2022-11-14T21:06:17.215Z,7.21
2022-11-14T21:07:17.253Z,7.21
2022-11-14T21:08:38.210Z,7.21
2022-11-14T21:09:17.171Z,7.21
2022-11-14T21:10:17.158Z,7.21
2022-11-14T21:11:17.135Z,7.20
2022-11-14T21:12:17.152Z,7.20
2022-11-14T21:13:17.133Z,7.19
2022-11-14T21:14:17.117Z,7.19
2022-11-14T21:15:17.136Z,7.19
2022-11-14T21:16:17.082Z,7.19
2022-11-14T21:17:17.070Z,7.19
2022-11-14T21:18:17.062Z,7.20
2022-11-14T21:19:17.045Z,7.19
2022-11-14T21:20:17.052Z,7.20
2022-11-14T21:21:17.014Z,7.20
2022-11-14T21:22:17.004Z,7.20
2022-11-14T21:23:16.979Z,7.19
2022-11-14T21:24:16.979Z,7.19
2022-11-14T21:25:16.952Z,7.18
2022-11-14T21:26:16.952Z,7.19
2022-11-14T21:27:16.937Z,7.19
2022-11-14T21:28:16.924Z,7.19
2022-11-14T21:29:16.915Z,7.19
2022-11-14T21:30:16.895Z,7.20
2022-11-14T21:31:16.899Z,7.20
2022-11-14T21:32:16.888Z,7.20
2022-11-14T21:33:16.853Z,7.20
2022-11-14T21:34:16.858Z,7.19
2022-11-14T21:35:16.844Z,7.18
2022-11-14T21:36:43.321Z,7.18
2022-11-14T21:37:16.845Z,7.17
2022-11-14T21:38:16.797Z,7.17
2022-11-14T21:39:17.710Z,7.17
2022-11-14T21:40:16.779Z,7.17
2022-11-14T21:41:16.759Z,7.17
2022-11-14T21:42:18.658Z,7.17
2022-11-14T21:43:16.727Z,7.17
2022-11-14T21:44:16.852Z,7.17
2022-11-14T21:45:16.719Z,7.16
2022-11-14T21:46:16.691Z,7.16
2022-11-14T21:47:16.743Z,7.16
2022-11-14T21:48:16.680Z,7.16
2022-11-14T21:49:16.677Z,7.16
2022-11-14T21:50:16.723Z,7.16
2022-11-14T21:51:16.665Z,7.16
2022-11-14T21:52:16.649Z,7.16
2022-11-14T21:53:16.606Z,7.15
2022-11-14T21:54:16.595Z,7.15
2022-11-14T21:55:16.587Z,7.14
2022-11-14T21:56:16.574Z,7.14
2022-11-14T21:57:16.568Z,7.14
2022-11-14T21:58:16.550Z,7.14
2022-11-14T21:59:16.723Z,7.14
2022-11-14T22:00:16.522Z,7.14
2022-11-14T22:01:16.619Z,7.14
2022-11-14T22:02:16.518Z,7.14
2022-11-14T22:03:18.966Z,7.14
2022-11-14T22:04:16.470Z,7.14
2022-11-14T22:05:16.473Z,7.14
2022-11-14T22:06:16.448Z,7.13
2022-11-14T22:07:16.492Z,7.13
2022-11-14T22:08:16.419Z,7.13
2022-11-14T22:09:16.411Z,7.13
2022-11-14T22:10:16.389Z,7.13
2022-11-14T22:11:16.388Z,7.13
2022-11-14T22:12:16.383Z,7.13
2022-11-14T22:13:16.395Z,7.13
2022-11-14T22:14:16.341Z,7.13
2022-11-14T22:15:16.343Z,7.13
2022-11-14T22:16:16.334Z,7.14
2022-11-14T22:17:16.316Z,7.14
2022-11-14T22:18:16.312Z,7.15
2022-11-14T22:19:16.306Z,7.15
2022-11-14T22:20:16.338Z,7.15
2022-11-14T22:21:16.262Z,7.14
2022-11-14T22:22:16.244Z,7.14
2022-11-14T22:23:16.246Z,7.14
2022-11-14T22:24:16.250Z,7.13
2022-11-14T22:25:16.230Z,7.13
2022-11-14T22:26:16.196Z,7.12
2022-11-14T22:27:16.209Z,7.11
2022-11-14T22:28:16.168Z,7.10
2022-11-14T22:29:16.158Z,7.10
2022-11-14T22:30:16.140Z,7.09
2022-11-14T22:31:16.137Z,7.08
2022-11-14T22:32:16.121Z,7.07
2022-11-14T22:33:16.125Z,7.06
2022-11-14T22:34:16.116Z,7.04
2022-11-14T22:35:16.095Z,7.03
2022-11-14T22:36:16.070Z,7.02
2022-11-14T22:37:16.059Z,7.01
2022-11-14T22:38:16.043Z,7.00
2022-11-14T22:39:16.053Z,6.99
2022-11-14T22:40:16.035Z,6.98
2022-11-14T22:41:16.017Z,6.97
2022-11-14T22:42:15.997Z,6.96
2022-11-14T22:43:15.998Z,6.95
2022-11-14T22:44:15.971Z,6.95
2022-11-14T22:45:15.981Z,6.94
2022-11-14T22:46:15.954Z,6.93
2022-11-14T22:47:15.943Z,6.93
2022-11-14T22:48:15.944Z,6.91
2022-11-14T22:49:20.630Z,6.90
2022-11-14T22:50:15.897Z,6.89
2022-11-14T22:51:15.887Z,6.89
2022-11-14T22:52:15.909Z,6.88
2022-11-14T22:53:15.857Z,6.88
2022-11-14T22:54:15.855Z,6.89
2022-11-14T22:55:18.155Z,6.89
2022-11-14T22:56:15.815Z,6.90
2022-11-14T22:57:15.817Z,6.90
2022-11-14T22:58:15.804Z,6.90
2022-11-14T22:59:15.783Z,6.90
2022-11-14T23:00:15.815Z,6.90
2022-11-14T23:01:15.750Z,6.90
2022-11-14T23:02:15.750Z,6.90
2022-11-14T23:03:20.205Z,6.90
2022-11-14T23:04:15.813Z,6.90
2022-11-14T23:05:15.708Z,6.90
2022-11-14T23:06:15.742Z,6.90
2022-11-14T23:07:15.769Z,6.90
2022-11-14T23:08:15.751Z,6.90
2022-11-14T23:09:15.661Z,6.90
2022-11-14T23:10:15.643Z,6.90
2022-11-14T23:11:15.655Z,6.90
2022-11-14T23:12:15.646Z,6.90
2022-11-14T23:13:15.612Z,6.90
2022-11-14T23:14:15.593Z,6.90
2022-11-14T23:15:15.589Z,6.90
2022-11-14T23:16:15.576Z,6.89
2022-11-14T23:17:15.575Z,6.88
2022-11-14T23:18:15.540Z,6.87
2022-11-14T23:19:15.566Z,6.87
2022-11-14T23:20:16.751Z,6.86
2022-11-14T23:21:15.511Z,6.86
2022-11-14T23:22:15.482Z,6.85
2022-11-14T23:23:15.503Z,6.84
2022-11-14T23:24:15.463Z,6.83
2022-11-14T23:25:15.443Z,6.82
2022-11-14T23:26:15.455Z,6.81
2022-11-14T23:27:15.429Z,6.80
2022-11-14T23:28:15.414Z,6.78
2022-11-14T23:29:15.412Z,6.77
2022-11-14T23:30:15.381Z,6.76
2022-11-14T23:31:15.369Z,6.75
2022-11-14T23:32:15.396Z,6.73
2022-11-14T23:33:15.369Z,6.72
2022-11-14T23:34:15.337Z,6.70
2022-11-14T23:35:15.328Z,6.69
2022-11-14T23:36:15.333Z,6.68
2022-11-14T23:37:15.322Z,6.66
2022-11-14T23:38:15.306Z,6.65
2022-11-14T23:39:15.302Z,6.64
2022-11-14T23:40:15.266Z,6.62
2022-11-14T23:41:15.270Z,6.61
2022-11-14T23:42:15.234Z,6.61
2022-11-14T23:43:15.220Z,6.60
2022-11-14T23:44:15.207Z,6.59
2022-11-14T23:45:15.215Z,6.58
2022-11-14T23:46:15.189Z,6.57
2022-11-14T23:47:15.432Z,6.55
2022-11-14T23:48:15.160Z,6.55
2022-11-14T23:49:15.146Z,6.54
2022-11-14T23:50:15.147Z,6.53
2022-11-14T23:51:15.116Z,6.52
2022-11-14T23:52:15.118Z,6.50
2022-11-14T23:53:15.095Z,6.50
2022-11-14T23:54:15.130Z,6.49
2022-11-14T23:55:15.105Z,6.48
2022-11-14T23:56:15.054Z,6.47
2022-11-14T23:57:15.040Z,6.46
2022-11-14T23:58:15.035Z,6.45
2022-11-14T23:59:15.048Z,6.44
